Time;durP1;ratioP1;P1;durP2;ratioP2;P2;SDS_P1;SDS_P2;PMS_P1;PMS_P2;Temp;Humidity;BMP_temperature;BMP_pressure;BME280_temperature;BME280_humidity;BME280_pressure;Samples;Min_cycle;Max_cycle;Signal;HPM_P1;HPM_P2
2022/04/04 00:01:51;;;;;;;13.57;11.43;;;;;;;;;;5073244;28;20164;-78
2022/04/04 00:04:17;;;;;;;12.05;10.95;;;;;;;;;;5073272;28;20405;-77
2022/04/04 00:06:43;;;;;;;12.52;11.20;;;;;;;;;;5073191;28;20249;-76
2022/04/04 00:09:09;;;;;;;14.37;11.57;;;;;;;;;;5071953;28;20176;-72
2022/04/04 00:11:34;;;;;;;11.75;10.45;;;;;;;;;;5073182;28;20506;-70
2022/04/04 00:14:00;;;;;;;12.30;11.00;;;;;;;;;;5073197;28;20174;-71
2022/04/04 00:16:29;;;;;;;11.23;10.10;;;;;;;;;;5073186;28;20414;-73
2022/04/04 00:18:55;;;;;;;11.00;10.10;;;;;;;;;;5073159;28;20406;-71
2022/04/04 00:21:21;;;;;;;11.03;10.03;;;;;;;;;;5073149;28;20172;-71
2022/04/04 00:23:47;;;;;;;10.65;9.75;;;;;;;;;;5072974;28;20429;-72
2022/04/04 00:26:13;;;;;;;11.87;10.70;;;;;;;;;;5072983;28;20655;-71
2022/04/04 00:28:39;;;;;;;10.43;9.48;;;;;;;;;;5073041;28;20406;-70
2022/04/04 00:31:05;;;;;;;12.30;10.80;;;;;;;;;;5073090;28;20164;-71
2022/04/04 00:33:31;;;;;;;10.93;9.93;;;;;;;;;;5074419;28;20249;-72
2022/04/04 00:35:57;;;;;;;11.20;10.15;;;;;;;;;;5076845;28;20337;-71
2022/04/04 00:38:23;;;;;;;14.38;11.88;;;;;;;;;;5076844;28;20172;-72
2022/04/04 00:40:49;;;;;;;14.50;11.53;;;;;;;;;;5076812;28;20230;-73
2022/04/04 00:43:15;;;;;;;13.13;10.85;;;;;;;;;;5076730;28;20493;-70
2022/04/04 00:45:45;;;;;;;11.13;9.98;;;;;;;;;;5076647;28;20615;-75
2022/04/04 00:48:11;;;;;;;12.68;11.32;;;;;;;;;;5076546;28;20172;-72
2022/04/04 00:50:37;;;;;;;14.73;12.05;;;;;;;;;;5076547;28;20631;-78
2022/04/04 00:53:03;;;;;;;11.63;10.40;;;;;;;;;;5076473;28;20646;-78
2022/04/04 00:55:29;;;;;;;13.00;10.90;;;;;;;;;;5075186;28;20184;-78
2022/04/04 00:57:56;;;;;;;10.87;9.83;;;;;;;;;;5075128;28;20577;-76
2022/04/04 01:00:22;;;;;;;10.35;9.27;;;;;;;;;;5076342;28;20414;-74
2022/04/04 01:02:48;;;;;;;10.95;9.90;;;;;;;;;;5076257;28;20601;-72
2022/04/04 01:05:14;;;;;;;11.17;10.07;;;;;;;;;;5076209;28;20235;-72
2022/04/04 01:07:40;;;;;;;9.80;8.93;;;;;;;;;;5076287;28;20399;-69
2022/04/04 01:10:08;;;;;;;11.35;10.25;;;;;;;;;;5076253;28;20209;-72
2022/04/04 01:12:35;;;;;;;11.45;10.27;;;;;;;;;;5076103;28;20171;-70
2022/04/04 01:15:01;;;;;;;9.85;9.05;;;;;;;;;;5074781;28;20221;-69
2022/04/04 01:17:27;;;;;;;9.98;9.05;;;;;;;;;;5076039;28;20251;-72
2022/04/04 01:19:56;;;;;;;9.63;8.82;;;;;;;;;;5076062;28;20201;-73
2022/04/04 01:22:22;;;;;;;9.02;7.90;;;;;;;;;;5076306;28;20204;-70
2022/04/04 01:24:48;;;;;;;10.27;9.27;;;;;;;;;;5075835;28;20171;-71
2022/04/04 01:27:14;;;;;;;9.13;8.33;;;;;;;;;;5075935;28;20187;-77
2022/04/04 01:29:40;;;;;;;9.25;8.45;;;;;;;;;;5076138;28;20791;-73
2022/04/04 01:32:07;;;;;;;8.43;7.72;;;;;;;;;;5075838;28;20167;-76
2022/04/04 01:34:34;;;;;;;9.43;8.07;;;;;;;;;;5075777;28;20605;-76
2022/04/04 01:37:00;;;;;;;9.77;8.88;;;;;;;;;;5075674;28;20190;-76
2022/04/04 01:39:26;;;;;;;10.07;8.55;;;;;;;;;;5075717;28;20579;-77
2022/04/04 01:41:55;;;;;;;9.00;8.30;;;;;;;;;;5075350;28;20695;-77
2022/04/04 01:44:20;;;;;;;9.00;8.30;;;;;;;;;;5075015;28;20521;-76
2022/04/04 01:46:46;;;;;;;9.82;9.02;;;;;;;;;;5075071;28;20203;-77
2022/04/04 01:49:12;;;;;;;9.90;9.02;;;;;;;;;;5075470;28;20172;-70
2022/04/04 01:51:39;;;;;;;9.88;9.05;;;;;;;;;;5075654;28;20168;-69
2022/04/04 01:54:05;;;;;;;11.10;10.00;;;;;;;;;;5075616;28;20262;-70
2022/04/04 01:56:32;;;;;;;10.52;9.57;;;;;;;;;;5075373;28;20177;-70
2022/04/04 01:58:59;;;;;;;11.70;9.85;;;;;;;;;;5075303;28;20182;-70
2022/04/04 02:01:25;;;;;;;11.55;10.45;;;;;;;;;;5075396;28;20163;-69
2022/04/04 02:03:52;;;;;;;10.38;9.52;;;;;;;;;;5075126;28;20625;-74
2022/04/04 02:06:18;;;;;;;15.52;10.15;;;;;;;;;;5073804;28;20302;-73
2022/04/04 02:08:48;;;;;;;12.82;9.75;;;;;;;;;;5075193;28;20168;-74
2022/04/04 02:11:15;;;;;;;16.48;11.13;;;;;;;;;;5075189;28;20671;-71
2022/04/04 02:13:42;;;;;;;12.35;10.00;;;;;;;;;;5074946;28;20179;-70
2022/04/04 02:16:08;;;;;;;13.00;10.25;;;;;;;;;;5073674;28;20179;-71
2022/04/04 02:18:37;;;;;;;11.03;10.03;;;;;;;;;;5074915;28;20172;-71
2022/04/04 02:21:05;;;;;;;11.50;10.38;;;;;;;;;;5074913;28;20468;-73
2022/04/04 02:23:31;;;;;;;12.25;11.00;;;;;;;;;;5074930;28;20152;-73
2022/04/04 02:25:57;;;;;;;17.73;10.10;;;;;;;;;;5074675;28;20256;-69
2022/04/04 02:28:24;;;;;;;14.05;11.50;;;;;;;;;;5074817;28;20876;-73
2022/04/04 02:30:50;;;;;;;11.48;10.48;;;;;;;;;;5074662;28;20172;-71
2022/04/04 02:33:16;;;;;;;10.95;9.85;;;;;;;;;;5074750;28;20175;-76
2022/04/04 02:35:45;;;;;;;11.23;9.35;;;;;;;;;;5074627;28;20262;-76
2022/04/04 02:38:12;;;;;;;11.35;10.25;;;;;;;;;;5074584;28;20164;-74
2022/04/04 02:40:38;;;;;;;9.70;8.80;;;;;;;;;;5074372;28;20226;-76
2022/04/04 02:43:05;;;;;;;10.38;9.45;;;;;;;;;;5074495;28;20615;-72
2022/04/04 02:45:32;;;;;;;9.75;8.85;;;;;;;;;;5073087;28;20609;-73
2022/04/04 02:47:58;;;;;;;9.60;8.70;;;;;;;;;;5074559;28;20179;-70
2022/04/04 02:50:24;;;;;;;8.65;7.85;;;;;;;;;;5074232;28;20176;-69
2022/04/04 02:52:50;;;;;;;8.65;7.85;;;;;;;;;;5074227;28;20612;-74
2022/04/04 02:58:00;;;;;;;8.30;7.63;;;;;;;;;;5074153;28;20238;-69
2022/04/04 03:00:27;;;;;;;7.85;7.35;;;;;;;;;;5074046;28;20176;-73
2022/04/04 03:02:54;;;;;;;9.18;8.23;;;;;;;;;;5074128;28;20247;-71
2022/04/04 03:05:20;;;;;;;7.50;6.80;;;;;;;;;;5072590;28;20658;-69
2022/04/04 03:07:46;;;;;;;8.05;7.45;;;;;;;;;;5072680;28;20226;-73
2022/04/04 03:10:13;;;;;;;7.53;7.00;;;;;;;;;;5073961;28;20195;-75
2022/04/04 03:12:43;;;;;;;8.20;7.55;;;;;;;;;;5073871;28;20410;-73
2022/04/04 03:15:14;;;;;;;7.85;7.07;;;;;;;;;;5073788;28;20160;-72
2022/04/04 03:17:41;;;;;;;8.30;7.57;;;;;;;;;;5073892;28;20175;-75
2022/04/04 03:20:09;;;;;;;8.90;8.10;;;;;;;;;;5073856;28;20172;-74
2022/04/04 03:22:36;;;;;;;9.85;8.68;;;;;;;;;;5073813;28;20174;-71
2022/04/04 03:25:02;;;;;;;8.98;8.10;;;;;;;;;;5072413;28;20253;-77
2022/04/04 03:27:28;;;;;;;8.00;7.20;;;;;;;;;;5073699;28;20605;-76
2022/04/04 03:29:54;;;;;;;8.43;7.72;;;;;;;;;;5073632;28;20402;-74
2022/04/04 03:32:20;;;;;;;7.97;7.43;;;;;;;;;;5073644;28;20503;-74
2022/04/04 03:34:45;;;;;;;7.33;6.80;;;;;;;;;;5073502;28;20461;-77
2022/04/04 03:37:11;;;;;;;8.60;8.00;;;;;;;;;;5073549;28;20406;-75
2022/04/04 03:39:37;;;;;;;9.00;8.10;;;;;;;;;;5073568;28;20449;-74
2022/04/04 03:42:04;;;;;;;8.40;7.70;;;;;;;;;;5073311;28;20466;-68
2022/04/04 03:44:30;;;;;;;9.52;8.73;;;;;;;;;;5073501;28;20175;-73
2022/04/04 03:46:56;;;;;;;9.18;8.38;;;;;;;;;;5073348;28;20214;-72
2022/04/04 03:49:22;;;;;;;8.50;7.90;;;;;;;;;;5073423;28;20250;-75
2022/04/04 03:51:49;;;;;;;8.90;8.15;;;;;;;;;;5073458;28;20402;-69
2022/04/04 03:54:15;;;;;;;8.90;8.20;;;;;;;;;;5073613;28;20244;-73
2022/04/04 03:56:41;;;;;;;9.80;8.20;;;;;;;;;;5073572;28;20164;-68
2022/04/04 03:59:07;;;;;;;11.00;8.57;;;;;;;;;;5073379;28;20179;-68
2022/04/04 04:01:32;;;;;;;8.57;7.77;;;;;;;;;;5073558;28;20412;-72
2022/04/04 04:03:58;;;;;;;10.90;7.97;;;;;;;;;;5072035;28;20426;-69
2022/04/04 04:06:24;;;;;;;8.97;8.37;;;;;;;;;;5073328;28;20476;-69
2022/04/04 04:08:53;;;;;;;11.87;8.60;;;;;;;;;;5075433;28;20957;-69
2022/04/04 04:11:20;;;;;;;9.02;8.30;;;;;;;;;;5077347;28;20413;-69
2022/04/04 04:13:47;;;;;;;10.13;9.15;;;;;;;;;;5077596;28;20210;-69
2022/04/04 04:16:13;;;;;;;8.98;8.00;;;;;;;;;;5077313;28;20214;-68
2022/04/04 04:18:40;;;;;;;8.93;8.05;;;;;;;;;;5077207;28;20178;-69
2022/04/04 04:21:07;;;;;;;8.25;7.45;;;;;;;;;;5077219;28;20199;-69
2022/04/04 04:23:34;;;;;;;8.85;8.20;;;;;;;;;;5077033;28;20164;-69
2022/04/04 04:26:00;;;;;;;9.05;8.15;;;;;;;;;;5076966;28;20743;-69
2022/04/04 04:28:26;;;;;;;8.88;8.00;;;;;;;;;;5077059;28;20175;-71
2022/04/04 04:30:52;;;;;;;9.02;8.18;;;;;;;;;;5076984;28;20293;-76
2022/04/04 04:33:18;;;;;;;10.00;9.10;;;;;;;;;;5076894;28;20182;-69
2022/04/04 04:35:46;;;;;;;8.37;7.70;;;;;;;;;;5076871;28;20285;-69
2022/04/04 04:38:12;;;;;;;8.27;7.57;;;;;;;;;;5076739;28;20829;-70
2022/04/04 04:40:38;;;;;;;8.80;7.90;;;;;;;;;;5076625;28;20219;-69
2022/04/04 04:43:04;;;;;;;8.70;7.73;;;;;;;;;;5076734;28;20441;-69
2022/04/04 04:45:30;;;;;;;9.13;8.23;;;;;;;;;;5075334;28;20834;-69
2022/04/04 04:47:57;;;;;;;7.97;7.28;;;;;;;;;;5076632;28;20258;-69
2022/04/04 04:50:23;;;;;;;15.18;8.48;;;;;;;;;;5076598;28;20685;-69
2022/04/04 04:52:50;;;;;;;9.23;8.43;;;;;;;;;;5076778;28;20298;-69
2022/04/04 04:55:18;;;;;;;9.93;8.48;;;;;;;;;;5076495;28;20171;-69
2022/04/04 04:57:45;;;;;;;11.13;8.82;;;;;;;;;;5075207;28;20229;-69
2022/04/04 05:00:12;;;;;;;9.10;8.13;;;;;;;;;;5076328;28;20178;-69
2022/04/04 05:02:38;;;;;;;9.65;8.60;;;;;;;;;;5076267;28;20615;-69
2022/04/04 05:05:07;;;;;;;9.10;8.20;;;;;;;;;;5076204;28;20175;-70
2022/04/04 05:07:33;;;;;;;10.23;9.23;;;;;;;;;;5076209;28;20175;-69
2022/04/04 05:10:00;;;;;;;10.88;9.70;;;;;;;;;;5076210;28;20175;-71
2022/04/04 05:12:25;;;;;;;14.38;12.60;;;;;;;;;;5076097;28;20168;-69
2022/04/04 05:14:51;;;;;;;15.63;12.07;;;;;;;;;;5076105;28;20221;-70
2022/04/04 05:17:18;;;;;;;11.13;10.03;;;;;;;;;;5076305;28;20407;-74
2022/04/04 05:19:44;;;;;;;10.52;9.48;;;;;;;;;;5074461;28;20425;-75
2022/04/04 05:22:10;;;;;;;10.80;9.70;;;;;;;;;;5075851;28;20239;-71
2022/04/04 05:24:36;;;;;;;10.73;9.80;;;;;;;;;;5075894;28;20168;-70
2022/04/04 05:27:02;;;;;;;9.97;9.00;;;;;;;;;;5075839;28;20466;-69
2022/04/04 05:29:28;;;;;;;9.93;8.98;;;;;;;;;;5075824;28;20524;-68
2022/04/04 05:31:55;;;;;;;10.77;9.73;;;;;;;;;;5075718;28;20172;-71
2022/04/04 05:34:21;;;;;;;12.07;10.02;;;;;;;;;;5075636;28;20183;-71
2022/04/04 05:36:48;;;;;;;10.07;9.00;;;;;;;;;;5075718;28;20229;-71
2022/04/04 05:39:14;;;;;;;17.00;15.20;;;;;;;;;;5074445;28;20171;-70
2022/04/04 05:41:40;;;;;;;20.67;14.25;;;;;;;;;;5075417;28;20223;-71
2022/04/04 05:44:07;;;;;;;10.75;9.73;;;;;;;;;;5075629;28;20650;-70
2022/04/04 05:46:33;;;;;;;10.25;8.85;;;;;;;;;;5074170;28;20298;-69
2022/04/04 05:49:00;;;;;;;10.07;8.98;;;;;;;;;;5075465;28;20192;-69
2022/04/04 05:51:26;;;;;;;11.00;9.90;;;;;;;;;;5075559;28;20172;-67
2022/04/04 05:53:52;;;;;;;10.27;9.27;;;;;;;;;;5075440;28;20156;-69
2022/04/04 05:56:20;;;;;;;11.40;10.30;;;;;;;;;;5075441;28;20175;-68
2022/04/04 05:58:46;;;;;;;13.38;10.80;;;;;;;;;;5075625;28;20399;-69
2022/04/04 06:01:12;;;;;;;14.83;10.67;;;;;;;;;;5075225;28;20701;-70
2022/04/04 06:03:38;;;;;;;12.63;11.20;;;;;;;;;;5075081;28;20402;-71
2022/04/04 06:06:04;;;;;;;15.02;11.23;;;;;;;;;;5075090;28;20476;-73
2022/04/04 06:08:30;;;;;;;14.52;13.00;;;;;;;;;;5075031;28;20638;-71
2022/04/04 06:10:56;;;;;;;15.02;13.25;;;;;;;;;;5075119;28;20636;-70
2022/04/04 06:13:22;;;;;;;13.77;11.70;;;;;;;;;;5074962;28;20164;-67
2022/04/04 06:15:48;;;;;;;23.13;18.70;;;;;;;;;;5074889;28;20406;-66
2022/04/04 06:18:15;;;;;;;28.02;21.60;;;;;;;;;;5075213;28;20489;-67
2022/04/04 06:20:41;;;;;;;14.02;11.93;;;;;;;;;;5074921;28;20703;-68
2022/04/04 06:23:08;;;;;;;14.95;11.88;;;;;;;;;;5074817;28;20180;-68
2022/04/04 06:25:34;;;;;;;13.80;12.30;;;;;;;;;;5074654;28;20196;-68
2022/04/04 06:28:00;;;;;;;15.02;11.10;;;;;;;;;;5074700;28;20172;-68
2022/04/04 06:30:26;;;;;;;13.38;10.93;;;;;;;;;;5074540;28;20238;-65
2022/04/04 06:32:52;;;;;;;14.55;10.73;;;;;;;;;;5074367;28;20543;-65
2022/04/04 06:35:18;;;;;;;17.38;11.60;;;;;;;;;;5074556;28;20258;-66
2022/04/04 06:37:46;;;;;;;12.07;10.38;;;;;;;;;;5074663;28;20195;-65
2022/04/04 06:40:12;;;;;;;12.65;10.88;;;;;;;;;;5074313;28;20215;-65
2022/04/04 06:42:39;;;;;;;11.75;10.50;;;;;;;;;;5074450;28;20179;-67
2022/04/04 06:45:06;;;;;;;14.23;11.93;;;;;;;;;;5072999;28;20240;-70
2022/04/04 06:47:32;;;;;;;13.32;11.23;;;;;;;;;;5074231;28;20512;-72
2022/04/04 06:49:59;;;;;;;12.57;11.27;;;;;;;;;;5074188;28;20180;-69
2022/04/04 06:52:25;;;;;;;12.40;11.10;;;;;;;;;;5072964;28;20190;-69
2022/04/04 06:54:53;;;;;;;10.70;9.73;;;;;;;;;;5072309;28;20553;-69
2022/04/04 06:57:19;;;;;;;30.05;21.42;;;;;;;;;;5070937;28;20537;-73
2022/04/04 06:59:45;;;;;;;23.13;15.80;;;;;;;;;;5070823;28;20172;-68
2022/04/04 07:02:11;;;;;;;11.27;10.27;;;;;;;;;;5071576;28;20258;-70
2022/04/04 07:04:37;;;;;;;11.65;10.45;;;;;;;;;;5069745;28;20187;-67
2022/04/04 07:07:04;;;;;;;12.52;10.70;;;;;;;;;;5070832;28;20219;-69
2022/04/04 07:09:30;;;;;;;13.77;12.23;;;;;;;;;;5071062;28;20241;-68
2022/04/04 07:11:57;;;;;;;11.85;10.65;;;;;;;;;;5070930;28;20179;-65
2022/04/04 07:14:24;;;;;;;11.32;9.45;;;;;;;;;;5071060;28;20667;-66
2022/04/04 07:16:52;;;;;;;12.63;11.40;;;;;;;;;;5071569;28;20229;-66
2022/04/04 07:19:20;;;;;;;12.80;11.50;;;;;;;;;;5073786;28;20176;-67
2022/04/04 07:21:46;;;;;;;11.32;10.25;;;;;;;;;;5073081;28;20255;-68
2022/04/04 07:24:12;;;;;;;12.20;11.00;;;;;;;;;;5071212;28;20238;-67
2022/04/04 07:26:38;;;;;;;14.00;11.53;;;;;;;;;;5073088;28;20506;-67
2022/04/04 07:29:04;;;;;;;11.47;10.47;;;;;;;;;;5073543;28;20889;-69
2022/04/04 07:31:30;;;;;;;13.70;11.20;;;;;;;;;;5073589;28;20411;-69
2022/04/04 07:33:56;;;;;;;14.30;12.83;;;;;;;;;;5073490;28;20398;-68
2022/04/04 07:36:22;;;;;;;15.30;13.27;;;;;;;;;;5073499;28;20398;-67
2022/04/04 07:38:48;;;;;;;17.90;15.00;;;;;;;;;;5073511;28;20528;-68
2022/04/04 07:41:14;;;;;;;18.88;14.48;;;;;;;;;;5073282;28;20534;-68
2022/04/04 07:43:40;;;;;;;17.65;15.00;;;;;;;;;;5072658;28;20159;-69
2022/04/04 07:46:06;;;;;;;17.08;14.85;;;;;;;;;;5073201;28;20227;-67
2022/04/04 07:48:32;;;;;;;18.60;14.70;;;;;;;;;;5073400;28;20648;-67
2022/04/04 07:50:59;;;;;;;23.42;16.90;;;;;;;;;;5073605;28;20328;-71
2022/04/04 07:53:25;;;;;;;19.02;15.60;;;;;;;;;;5073352;28;20246;-71
2022/04/04 07:55:51;;;;;;;18.70;16.55;;;;;;;;;;5073529;28;20168;-67
2022/04/04 07:58:17;;;;;;;17.70;15.40;;;;;;;;;;5071958;28;20179;-66
2022/04/04 08:00:44;;;;;;;16.90;14.95;;;;;;;;;;5073351;28;20413;-66
2022/04/04 08:03:10;;;;;;;19.58;16.08;;;;;;;;;;5073249;28;20180;-68
2022/04/04 08:05:36;;;;;;;20.73;15.52;;;;;;;;;;5073136;28;20215;-63
2022/04/04 08:08:02;;;;;;;19.50;17.25;;;;;;;;;;5073190;28;20163;-69
2022/04/04 08:10:28;;;;;;;19.35;15.90;;;;;;;;;;5073255;28;20175;-68
2022/04/04 08:12:55;;;;;;;18.15;16.00;;;;;;;;;;5071881;28;20171;-69
2022/04/04 08:15:21;;;;;;;22.00;17.70;;;;;;;;;;5073136;28;20495;-70
2022/04/04 08:17:47;;;;;;;20.50;16.38;;;;;;;;;;5073155;28;20167;-71
2022/04/04 08:20:13;;;;;;;20.33;17.40;;;;;;;;;;5073141;28;20317;-69
2022/04/04 08:22:43;;;;;;;20.20;15.93;;;;;;;;;;5073103;28;20239;-67
2022/04/04 08:25:13;;;;;;;20.95;17.85;;;;;;;;;;5073084;28;20611;-67
2022/04/04 08:27:41;;;;;;;18.23;15.05;;;;;;;;;;5073018;28;20176;-68
2022/04/04 08:30:08;;;;;;;18.73;15.18;;;;;;;;;;5073067;28;20180;-69
2022/04/04 08:32:38;;;;;;;16.60;14.82;;;;;;;;;;5073037;28;20163;-68
2022/04/04 08:35:06;;;;;;;17.35;14.35;;;;;;;;;;5073022;28;20164;-69
2022/04/04 08:37:33;;;;;;;15.80;14.25;;;;;;;;;;5072921;28;20164;-69
2022/04/04 08:39:59;;;;;;;15.05;12.80;;;;;;;;;;5071470;28;20175;-69
2022/04/04 08:42:27;;;;;;;14.85;13.30;;;;;;;;;;5071653;28;20187;-70
2022/04/04 08:44:55;;;;;;;14.20;12.80;;;;;;;;;;5072894;28;20156;-69
2022/04/04 08:47:22;;;;;;;14.98;13.05;;;;;;;;;;5072859;28;20242;-69
2022/04/04 08:49:48;;;;;;;13.90;12.57;;;;;;;;;;5072869;28;20183;-69
2022/04/04 08:52:15;;;;;;;14.50;12.95;;;;;;;;;;5072775;28;20213;-69
2022/04/04 08:54:42;;;;;;;14.52;13.20;;;;;;;;;;5073283;28;20223;-69
2022/04/04 08:57:08;;;;;;;15.30;11.97;;;;;;;;;;5076501;28;20188;-70
2022/04/04 08:59:34;;;;;;;16.25;12.57;;;;;;;;;;5076400;28;20459;-70
2022/04/04 09:02:00;;;;;;;17.53;14.30;;;;;;;;;;5076385;28;20168;-69
2022/04/04 09:04:26;;;;;;;14.23;12.63;;;;;;;;;;5076344;28;20410;-69
2022/04/04 09:06:54;;;;;;;17.05;12.90;;;;;;;;;;5076205;28;20624;-69
2022/04/04 09:09:38;;;;;;;13.35;12.15;;;;;;;;;;5074990;28;20221;-69
2022/04/04 09:12:06;;;;;;;13.30;12.00;;;;;;;;;;5076214;28;20568;-70
2022/04/04 09:14:35;;;;;;;12.90;11.70;;;;;;;;;;5076141;28;20405;-69
2022/04/04 09:17:01;;;;;;;16.40;12.73;;;;;;;;;;5076079;28;20402;-69
2022/04/04 09:19:27;;;;;;;11.83;10.60;;;;;;;;;;5075918;28;20395;-69
2022/04/04 09:21:53;;;;;;;13.07;11.80;;;;;;;;;;5076136;28;20504;-69
2022/04/04 09:24:19;;;;;;;12.03;10.97;;;;;;;;;;5075963;28;20381;-69
2022/04/04 09:26:45;;;;;;;13.50;10.53;;;;;;;;;;5075881;28;20472;-69
2022/04/04 09:29:16;;;;;;;10.77;9.97;;;;;;;;;;5075908;28;20390;-69
2022/04/04 09:31:55;;;;;;;10.83;9.83;;;;;;;;;;5075648;28;20899;-69
2022/04/04 09:34:20;;;;;;;8.80;8.13;;;;;;;;;;5074292;28;20417;-69
2022/04/04 09:36:47;;;;;;;11.70;9.63;;;;;;;;;;5074496;28;20992;-69
2022/04/04 09:39:14;;;;;;;10.23;9.33;;;;;;;;;;5075706;28;20380;-69
2022/04/04 09:41:40;;;;;;;10.87;9.83;;;;;;;;;;5075490;28;20535;-69
2022/04/04 09:44:08;;;;;;;11.57;10.40;;;;;;;;;;5075612;28;20812;-69
2022/04/04 09:46:37;;;;;;;9.18;8.45;;;;;;;;;;5075584;28;20462;-68
2022/04/04 09:49:03;;;;;;;9.60;8.80;;;;;;;;;;5075506;28;20535;-69
2022/04/04 09:51:41;;;;;;;8.87;8.27;;;;;;;;;;5075489;28;20492;-69
2022/04/04 09:54:12;;;;;;;7.80;7.30;;;;;;;;;;5075357;28;20813;-69
2022/04/04 09:56:39;;;;;;;7.37;6.80;;;;;;;;;;5075521;28;20406;-69
2022/04/04 09:59:06;;;;;;;7.80;7.20;;;;;;;;;;5075437;28;20398;-69
2022/04/04 10:01:32;;;;;;;6.80;6.40;;;;;;;;;;5075332;28;20410;-69
2022/04/04 10:04:00;;;;;;;7.70;7.10;;;;;;;;;;5075292;28;20403;-69
2022/04/04 10:06:27;;;;;;;6.63;6.23;;;;;;;;;;5074354;28;20468;-69
2022/04/04 10:09:03;;;;;;;6.90;6.50;;;;;;;;;;5075474;28;20814;-68
2022/04/04 10:11:36;;;;;;;8.77;5.87;;;;;;;;;;5075126;28;20430;-68
2022/04/04 10:14:02;;;;;;;6.43;6.13;;;;;;;;;;5075078;28;20369;-70
2022/04/04 10:16:30;;;;;;;6.27;5.97;;;;;;;;;;5075022;28;20402;-70
2022/04/04 10:18:57;;;;;;;6.57;6.17;;;;;;;;;;5075007;28;20401;-68
2022/04/04 10:21:23;;;;;;;7.03;6.53;;;;;;;;;;5073622;28;20484;-68
2022/04/04 10:23:52;;;;;;;6.30;5.90;;;;;;;;;;5074750;28;20417;-69
2022/04/04 10:26:20;;;;;;;7.53;7.10;;;;;;;;;;5074648;28;20827;-69
2022/04/04 10:28:47;;;;;;;8.37;7.50;;;;;;;;;;5074680;28;20402;-68
2022/04/04 10:31:13;;;;;;;8.17;7.53;;;;;;;;;;5073459;28;20460;-68
2022/04/04 10:33:39;;;;;;;8.47;7.67;;;;;;;;;;5074663;28;20468;-68
2022/04/04 10:36:07;;;;;;;8.90;7.43;;;;;;;;;;5074720;28;20396;-69
2022/04/04 10:38:34;;;;;;;8.17;7.67;;;;;;;;;;5074712;28;20505;-69
2022/04/04 10:41:07;;;;;;;8.50;7.90;;;;;;;;;;5074412;28;20509;-68
2022/04/04 10:43:34;;;;;;;9.07;8.30;;;;;;;;;;5074668;28;20406;-68
2022/04/04 10:46:05;;;;;;;9.80;8.33;;;;;;;;;;5074431;28;20454;-70
2022/04/04 10:48:32;;;;;;;8.90;8.10;;;;;;;;;;5074437;28;20406;-69
2022/04/04 10:51:11;;;;;;;11.53;8.40;;;;;;;;;;5074857;28;20398;-69
2022/04/04 10:53:39;;;;;;;9.53;8.73;;;;;;;;;;5074436;28;20433;-70
2022/04/04 10:56:06;;;;;;;8.93;8.23;;;;;;;;;;5074247;28;20394;-70
2022/04/04 10:58:32;;;;;;;9.03;8.40;;;;;;;;;;5074237;28;20410;-69
2022/04/04 11:01:03;;;;;;;8.60;8.07;;;;;;;;;;5074219;28;20922;-70
2022/04/04 11:03:31;;;;;;;10.13;9.03;;;;;;;;;;5074092;28;20417;-70
2022/04/04 11:09:02;;;;;;;9.00;8.30;;;;;;;;;;5074030;28;20468;-70
2022/04/04 11:11:41;;;;;;;9.10;8.40;;;;;;;;;;5073935;28;20434;-70
2022/04/04 11:14:07;;;;;;;9.77;8.87;;;;;;;;;;5073844;28;20402;-69
2022/04/04 11:16:51;;;;;;;8.57;7.93;;;;;;;;;;5072460;28;20517;-69
2022/04/04 11:19:18;;;;;;;7.80;7.30;;;;;;;;;;5073623;28;20430;-69
2022/04/04 11:21:44;;;;;;;8.07;7.57;;;;;;;;;;5073656;28;20767;-69
2022/04/04 11:24:10;;;;;;;8.60;7.80;;;;;;;;;;5073834;28;20410;-68
2022/04/04 11:26:36;;;;;;;8.03;7.30;;;;;;;;;;5073602;28;20473;-69
2022/04/04 11:29:03;;;;;;;9.40;8.60;;;;;;;;;;5073347;28;20414;-68
2022/04/04 11:31:29;;;;;;;9.37;8.53;;;;;;;;;;5073351;28;20405;-67
2022/04/04 11:33:55;;;;;;;8.43;7.83;;;;;;;;;;5073332;28;20377;-66
2022/04/04 11:36:25;;;;;;;8.80;8.20;;;;;;;;;;5073246;28;20916;-66
2022/04/04 11:38:51;;;;;;;8.77;8.27;;;;;;;;;;5073530;28;20406;-67
2022/04/04 11:41:20;;;;;;;9.80;9.10;;;;;;;;;;5073070;28;20823;-67
2022/04/04 11:43:52;;;;;;;9.10;8.50;;;;;;;;;;5071776;28;20453;-69
2022/04/04 11:46:19;;;;;;;8.93;8.10;;;;;;;;;;5073292;28;20465;-67
2022/04/04 11:48:54;;;;;;;8.77;8.10;;;;;;;;;;5072026;28;20418;-68
2022/04/04 11:51:25;;;;;;;8.07;7.43;;;;;;;;;;5073025;28;20807;-68
2022/04/04 11:54:00;;;;;;;8.17;7.50;;;;;;;;;;5073190;28;20885;-68
2022/04/04 11:56:27;;;;;;;8.87;8.10;;;;;;;;;;5073215;28;20398;-68
2022/04/04 11:58:55;;;;;;;8.13;7.63;;;;;;;;;;5072830;28;20449;-69
2022/04/04 12:01:27;;;;;;;8.00;7.50;;;;;;;;;;5073338;28;20393;-68
2022/04/04 12:03:54;;;;;;;8.97;8.40;;;;;;;;;;5071837;28;20417;-69
2022/04/04 12:06:21;;;;;;;7.93;7.30;;;;;;;;;;5072352;28;20461;-67
2022/04/04 12:08:47;;;;;;;7.33;6.73;;;;;;;;;;5073209;28;20417;-67
2022/04/04 12:11:13;;;;;;;6.83;6.53;;;;;;;;;;5073038;28;20521;-67
2022/04/04 12:13:52;;;;;;;7.30;6.60;;;;;;;;;;5072909;28;20406;-68
2022/04/04 12:16:18;;;;;;;7.60;7.00;;;;;;;;;;5072975;28;20386;-70
2022/04/04 12:18:52;;;;;;;7.13;6.83;;;;;;;;;;5072813;28;20399;-71
2022/04/04 12:21:20;;;;;;;7.47;6.97;;;;;;;;;;5073090;28;20410;-71
2022/04/04 12:26:31;;;;;;;7.67;7.13;;;;;;;;;;5073009;28;20460;-69
2022/04/04 12:28:57;;;;;;;7.03;6.53;;;;;;;;;;5073583;28;20395;-71
2022/04/04 12:31:25;;;;;;;7.40;7.00;;;;;;;;;;5075496;28;20774;-72
2022/04/04 12:34:06;;;;;;;8.57;8.07;;;;;;;;;;5076920;28;20399;-71
2022/04/04 12:36:35;;;;;;;7.93;7.43;;;;;;;;;;5076744;28;20405;-72
2022/04/04 12:39:02;;;;;;;7.30;6.90;;;;;;;;;;5076602;28;20881;-70
2022/04/04 12:41:28;;;;;;;7.33;6.90;;;;;;;;;;5075301;28;20469;-71
2022/04/04 12:44:01;;;;;;;7.20;6.80;;;;;;;;;;5076805;28;20402;-71
2022/04/04 12:46:29;;;;;;;6.73;6.40;;;;;;;;;;5076389;28;20465;-70
2022/04/04 12:49:07;;;;;;;7.47;6.93;;;;;;;;;;5075391;28;20424;-69
2022/04/04 12:51:34;;;;;;;6.87;6.57;;;;;;;;;;5076507;28;20417;-67
2022/04/04 12:54:00;;;;;;;11.10;7.53;;;;;;;;;;5076588;28;20402;-68
2022/04/04 12:56:27;;;;;;;7.47;6.97;;;;;;;;;;5076598;28;20414;-69
2022/04/04 12:59:13;;;;;;;6.20;5.90;;;;;;;;;;5076361;28;20950;-70
2022/04/04 13:01:39;;;;;;;7.17;6.77;;;;;;;;;;5076200;28;20445;-70
2022/04/04 13:04:21;;;;;;;7.10;6.60;;;;;;;;;;5076298;28;20834;-69
2022/04/04 13:06:50;;;;;;;7.93;7.30;;;;;;;;;;5075456;28;20500;-71
2022/04/04 13:09:34;;;;;;;7.93;7.10;;;;;;;;;;5075691;28;20402;-71
2022/04/04 13:12:02;;;;;;;6.70;6.13;;;;;;;;;;5076257;28;20497;-71
2022/04/04 13:14:28;;;;;;;5.80;5.50;;;;;;;;;;5075088;28;20896;-72
2022/04/04 13:17:00;;;;;;;10.87;5.80;;;;;;;;;;5075805;28;20459;-70
2022/04/04 13:19:26;;;;;;;6.53;6.23;;;;;;;;;;5076279;28;20402;-70
2022/04/04 13:21:53;;;;;;;6.63;6.23;;;;;;;;;;5075985;28;20924;-70
2022/04/04 13:24:19;;;;;;;6.73;6.33;;;;;;;;;;5075934;28;20559;-69
2022/04/04 13:26:47;;;;;;;6.03;5.83;;;;;;;;;;5075761;28;20477;-71
2022/04/04 13:29:13;;;;;;;6.50;6.03;;;;;;;;;;5075949;28;20448;-69
2022/04/04 13:31:40;;;;;;;7.43;6.83;;;;;;;;;;5075817;28;20410;-67
2022/04/04 13:34:07;;;;;;;8.10;5.80;;;;;;;;;;5075856;28;20499;-68
2022/04/04 13:36:33;;;;;;;7.27;6.87;;;;;;;;;;5074468;28;20417;-68
2022/04/04 13:38:59;;;;;;;7.10;6.50;;;;;;;;;;5075614;28;20841;-69
2022/04/04 13:41:30;;;;;;;6.13;5.83;;;;;;;;;;5072872;28;20562;-68
2022/04/04 13:43:56;;;;;;;6.40;6.00;;;;;;;;;;5075725;28;20502;-68
2022/04/04 13:46:28;;;;;;;5.77;5.40;;;;;;;;;;5074299;28;20481;-68
2022/04/04 13:48:54;;;;;;;6.17;5.87;;;;;;;;;;5075558;28;20430;-67
2022/04/04 13:51:22;;;;;;;6.93;6.37;;;;;;;;;;5075503;28;20418;-68
2022/04/04 13:53:49;;;;;;;5.97;5.67;;;;;;;;;;5075591;28;20402;-68
2022/04/04 13:56:18;;;;;;;6.17;5.87;;;;;;;;;;5075722;28;20741;-68
2022/04/04 13:58:44;;;;;;;6.30;5.90;;;;;;;;;;5075339;28;20481;-68
2022/04/04 14:01:10;;;;;;;7.07;6.37;;;;;;;;;;5073985;28;20501;-67
2022/04/04 14:03:36;;;;;;;6.87;6.30;;;;;;;;;;5075362;28;20509;-67
2022/04/04 14:06:02;;;;;;;6.80;6.30;;;;;;;;;;5075213;28;20454;-67
2022/04/04 14:08:29;;;;;;;6.33;6.03;;;;;;;;;;5074834;28;20438;-66
2022/04/04 14:10:55;;;;;;;6.80;6.33;;;;;;;;;;5074835;28;20410;-67
2022/04/04 14:13:22;;;;;;;6.20;5.90;;;;;;;;;;5075015;28;20406;-66
2022/04/04 14:15:49;;;;;;;6.33;6.03;;;;;;;;;;5073314;28;20944;-66
2022/04/04 14:18:16;;;;;;;5.33;5.13;;;;;;;;;;5074538;28;20406;-66
2022/04/04 14:20:42;;;;;;;6.20;5.80;;;;;;;;;;5074902;28;20453;-66
2022/04/04 14:23:08;;;;;;;7.50;6.77;;;;;;;;;;5074923;28;20406;-67
2022/04/04 14:25:34;;;;;;;6.53;6.10;;;;;;;;;;5073120;28;20437;-67
2022/04/04 14:28:00;;;;;;;6.07;5.70;;;;;;;;;;5074423;28;20493;-67
2022/04/04 14:30:26;;;;;;;6.97;6.37;;;;;;;;;;5074531;28;20501;-66
2022/04/04 14:32:53;;;;;;;6.20;5.90;;;;;;;;;;5074704;28;20511;-67
2022/04/04 14:35:20;;;;;;;5.80;5.40;;;;;;;;;;5074253;28;20421;-66
2022/04/04 14:37:46;;;;;;;10.27;5.77;;;;;;;;;;5074265;28;20402;-67
2022/04/04 14:40:12;;;;;;;6.20;5.80;;;;;;;;;;5072633;28;20882;-66